| time (UTC) | temp F | wind direction | speed MPH | gust MPH | rain 1hr in | rain 24hr in | rain mn in | humidity % | barometer mb |
| 20260507171545 | 63 | 290 | 3.0 | 10.0 | 0.00 | 0.24 | 0.16 | 36 | 1004.9 |
| 20260507170033 | 63 | 193 | 2.0 | 7.0 | 0.00 | 0.24 | 0.16 | 39 | 1005.0 |
| 20260507164536 | 63 | 144 | 1.0 | 6.0 | 0.00 | 0.24 | 0.16 | 41 | 1005.1 |
| 20260507163031 | 63 | 63 | 1.0 | 7.0 | 0.00 | 0.24 | 0.16 | 43 | 1005.4 |
| 20260507161530 | 62 | 211 | 2.0 | 9.0 | 0.00 | 0.24 | 0.16 | 43 | 1005.4 |
| 20260507160031 | 62 | 71 | 1.0 | 4.0 | 0.00 | 0.24 | 0.16 | 45 | 1005.5 |
| 20260507154525 | 61 | 186 | 1.0 | 7.0 | 0.00 | 0.24 | 0.16 | 47 | 1005.6 |
| 20260507153026 | 61 | 18 | 1.0 | 8.0 | 0.00 | 0.24 | 0.16 | 52 | 1005.7 |
| 20260507151519 | 60 | 205 | 3.0 | 7.0 | 0.00 | 0.24 | 0.16 | 53 | 1005.8 |
| 20260507150018 | 59 | 260 | 2.0 | 9.0 | 0.00 | 0.24 | 0.16 | 57 | 1005.9 |
| 20260507144515 | 59 | 155 | 1.0 | 5.0 | 0.00 | 0.24 | 0.16 | 60 | 1006.0 |
| 20260507143014 | 59 | 133 | 2.0 | 5.0 | 0.00 | 0.24 | 0.16 | 61 | 1006.2 |
| 20260507141513 | 59 | 277 | 1.0 | 4.0 | 0.00 | 0.24 | 0.16 | 59 | 1006.2 |
| 20260507140026 | 58 | 245 | 0.0 | 5.0 | 0.00 | 0.24 | 0.16 | 63 | 1006.2 |
| 20260507134510 | 57 | 355 | 0.0 | 3.0 | 0.00 | 0.24 | 0.16 | 66 | 1006.2 |
| 20260507133008 | 56 | 321 | 0.0 | 6.0 | 0.00 | 0.24 | 0.16 | 72 | 1006.2 |
| 20260507131506 | 55 | 279 | 0.0 | 5.0 | 0.00 | 0.24 | 0.16 | 76 | 1006.3 |
| 20260507130004 | 53 | 235 | 0.0 | 5.0 | 0.00 | 0.24 | 0.16 | 82 | 1006.5 |
| 20260507124504 | 51 | 356 | 1.0 | 4.0 | 0.00 | 0.24 | 0.16 | 85 | 1006.6 |
| 20260507123106 | 50 | 241 | 1.0 | 6.0 | 0.00 | 0.24 | 0.16 | 88 | 1006.7 |
| 20260507121601 | 50 | 270 | 0.0 | 2.0 | 0.00 | 0.24 | 0.16 | 90 | 1006.7 |
| 20260507120059 | 49 | 226 | 0.0 | 4.0 | 0.00 | 0.24 | 0.16 | 91 | 1006.6 |
| 20260507114558 | 48 | 264 | 0.0 | 2.0 | 0.00 | 0.24 | 0.16 | 92 | 1006.4 |
| 20260507113128 | 48 | 245 | 0.0 | 2.0 | 0.00 | 0.24 | 0.16 | 92 | 1006.4 |
| 20260507111556 | 48 | 219 | 0.0 | 2.0 | 0.00 | 0.24 | 0.16 | 93 | 1006.3 |
| 20260507110058 | 48 | 233 | 0.0 | 1.0 | 0.00 | 0.24 | 0.16 | 92 | 1006.2 |
| 20260507104606 | 48 | 216 | 0.0 | 1.0 | 0.01 | 0.24 | 0.16 | 92 | 1006.1 |
| 20260507103055 | 48 | 216 | 0.0 | 0.0 | 0.02 | 0.24 | 0.16 | 92 | 1006.4 |
| 20260507101555 | 47 | 216 | 0.0 | 0.0 | 0.05 | 0.24 | 0.16 | 91 | 1006.0 |
| 20260507100057 | 47 | 216 | 0.0 | 1.0 | 0.08 | 0.24 | 0.16 | 91 | 1005.9 |
| 20260507094601 | 47 | 40 | 0.0 | 1.0 | 0.10 | 0.23 | 0.15 | 90 | 1005.7 |
| 20260507093050 | 47 | 27 | 0.0 | 2.0 | 0.10 | 0.22 | 0.14 | 90 | 1005.6 |
| 20260507091549 | 48 | 256 | 0.0 | 3.0 | 0.07 | 0.19 | 0.11 | 89 | 1005.6 |
| 20260507090046 | 48 | 248 | 0.0 | 3.0 | 0.06 | 0.16 | 0.08 | 88 | 1005.9 |
| 20260507084554 | 48 | 238 | 0.0 | 2.0 | 0.03 | 0.13 | 0.05 | 87 | 1005.9 |
| 20260507083042 | 49 | 225 | 0.0 | 3.0 | 0.03 | 0.12 | 0.04 | 86 | 1005.8 |
| 20260507081540 | 49 | 239 | 0.0 | 4.0 | 0.03 | 0.12 | 0.04 | 84 | 1005.7 |
| 20260507080036 | 50 | 77 | 2.0 | 8.0 | 0.01 | 0.10 | 0.02 | 82 | 1005.8 |
| 20260507074534 | 51 | 204 | 1.0 | 7.0 | 0.01 | 0.10 | 0.02 | 82 | 1005.5 |
| 20260507073028 | 53 | 246 | 0.0 | 5.0 | 0.00 | 0.09 | 0.01 | 81 | 1005.5 |
| 20260507071529 | 53 | 280 | 1.0 | 4.0 | 0.00 | 0.09 | 0.01 | 81 | 1004.7 |
| 20260507070026 | 54 | 228 | 0.0 | 4.0 | 0.00 | 0.09 | 0.01 | 82 | 1004.5 |
| 20260507064523 | 54 | 348 | 0.0 | 3.0 | 0.00 | 0.09 | 0.01 | 82 | 1004.7 |
| 20260507063021 | 54 | 267 | 0.0 | 3.0 | 0.01 | 0.09 | 0.01 | 81 | 1005.0 |
| 20260507061520 | 55 | 263 | 0.0 | 7.0 | 0.01 | 0.09 | 0.01 | 82 | 1004.7 |
| 20260507060031 | 55 | 214 | 0.0 | 5.0 | 0.01 | 0.09 | 0.01 | 83 | 1004.6 |
| 20260507054523 | 55 | 138 | 1.0 | 5.0 | 0.01 | 0.09 | 0.01 | 82 | 1004.9 |
| 20260507053015 | 56 | 132 | 0.0 | 7.0 | 0.00 | 0.08 | 0.00 | 83 | 1005.2 |
| 20260507051511 | 56 | 9 | 0.0 | 5.0 | 0.00 | 0.08 | 0.00 | 85 | 1005.1 |
| 20260507050027 | 57 | 268 | 0.0 | 3.0 | 0.00 | 0.08 | 0.00 | 88 | 1004.8 |
| 20260507044511 | 57 | 311 | 1.0 | 8.0 | 0.00 | 0.08 | 0.00 | 89 | 1004.9 |
| 20260507043005 | 58 | 335 | 1.0 | 4.0 | 0.00 | 0.08 | 0.00 | 91 | 1004.8 |
| 20260507041504 | 58 | 167 | 0.0 | 4.0 | 0.00 | 0.08 | 0.00 | 93 | 1004.7 |
| 20260507040111 | 59 | 281 | 0.0 | 2.0 | 0.00 | 0.08 | 0.00 | 93 | 1004.8 |
| 20260507034607 | 59 | 206 | 0.0 | 3.0 | 0.00 | 0.08 | 0.08 | 93 | 1004.9 |
| 20260507033103 | 58 | 223 | 0.0 | 3.0 | 0.00 | 0.08 | 0.08 | 93 | 1004.6 |
| 20260507031558 | 58 | 204 | 1.0 | 4.0 | 0.00 | 0.08 | 0.08 | 93 | 1004.6 |
| 20260507030058 | 58 | 209 | 1.0 | 4.0 | 0.00 | 0.08 | 0.08 | 93 | 1004.3 |
| 20260507024557 | 58 | 148 | 1.0 | 3.0 | 0.00 | 0.08 | 0.08 | 93 | 1004.3 |
| 20260507023056 | 58 | 210 | 0.0 | 4.0 | 0.00 | 0.08 | 0.08 | 93 | 1004.4 |
| 20260507021605 | 58 | 210 | 0.0 | 3.0 | 0.00 | 0.08 | 0.08 | 93 | 1004.3 |
| 20260507020056 | 58 | 200 | 0.0 | 3.0 | 0.00 | 0.08 | 0.08 | 93 | 1004.5 |
| 20260507014558 | 58 | 219 | 1.0 | 3.0 | 0.00 | 0.08 | 0.08 | 93 | 1004.3 |
| 20260507013053 | 58 | 212 | 0.0 | 4.0 | 0.00 | 0.08 | 0.08 | 93 | 1004.4 |
| 20260507011557 | 58 | 211 | 1.0 | 3.0 | 0.00 | 0.08 | 0.08 | 93 | 1004.7 |
| 20260507010053 | 58 | 173 | 1.0 | 4.0 | 0.00 | 0.08 | 0.08 | 93 | 1004.7 |
| 20260507004553 | 57 | 204 | 1.0 | 4.0 | 0.00 | 0.08 | 0.08 | 93 | 1004.8 |
| 20260507003052 | 57 | 167 | 1.0 | 5.0 | 0.01 | 0.08 | 0.08 | 93 | 1004.6 |
| 20260507001554 | 57 | 195 | 1.0 | 4.0 | 0.01 | 0.08 | 0.08 | 93 | 1004.5 |
| 20260507000054 | 58 | 197 | 1.0 | 3.0 | 0.02 | 0.08 | 0.08 | 93 | 1004.4 |
| 20260506234605 | 58 | 208 | 0.0 | 3.0 | 0.02 | 0.08 | 0.08 | 92 | 1004.3 |
| 20260506233048 | 58 | 217 | 0.0 | 4.0 | 0.01 | 0.07 | 0.07 | 92 | 1004.3 |
| 20260506231547 | 58 | 207 | 1.0 | 3.0 | 0.01 | 0.07 | 0.07 | 92 | 1004.2 |
| 20260506230047 | 58 | 206 | 1.0 | 3.0 | 0.00 | 0.06 | 0.06 | 92 | 1004.2 |
| 20260506224547 | 58 | 207 | 1.0 | 4.0 | 0.00 | 0.06 | 0.06 | 92 | 1004.3 |
| 20260506223048 | 59 | 214 | 1.0 | 3.0 | 0.01 | 0.06 | 0.06 | 92 | 1004.4 |
| 20260506221542 | 59 | 212 | 2.0 | 4.0 | 0.02 | 0.06 | 0.06 | 91 | 1004.5 |
| 20260506220041 | 59 | 209 | 1.0 | 4.0 | 0.02 | 0.06 | 0.06 | 91 | 1004.7 |
| 20260506214543 | 59 | 216 | 1.0 | 4.0 | 0.02 | 0.06 | 0.06 | 90 | 1004.6 |
| 20260506213038 | 60 | 207 | 1.0 | 5.0 | 0.01 | 0.05 | 0.05 | 89 | 1004.9 |
| 20260506211537 | 60 | 208 | 2.0 | 6.0 | 0.01 | 0.04 | 0.04 | 88 | 1005.0 |
| 20260506210038 | 60 | 180 | 1.0 | 4.0 | 0.01 | 0.04 | 0.04 | 88 | 1005.0 |
| 20260506204548 | 61 | 203 | 1.0 | 4.0 | 0.01 | 0.04 | 0.04 | 87 | 1005.2 |
| 20260506203033 | 61 | 189 | 1.0 | 5.0 | 0.02 | 0.04 | 0.04 | 86 | 1005.4 |
| 20260506201535 | 61 | 217 | 2.0 | 6.0 | 0.02 | 0.03 | 0.03 | 86 | 1005.4 |
| 20260506200034 | 61 | 176 | 2.0 | 7.0 | 0.03 | 0.03 | 0.03 | 85 | 1005.3 |
| 20260506194533 | 62 | 201 | 1.0 | 4.0 | 0.03 | 0.03 | 0.03 | 83 | 1005.1 |
| 20260506193028 | 62 | 176 | 2.0 | 6.0 | 0.02 | 0.02 | 0.02 | 82 | 1005.5 |
| 20260506191528 | 63 | 214 | 0.0 | 6.0 | 0.01 | 0.01 | 0.01 | 79 | 1005.5 |
| 20260506190026 | 66 | 198 | 3.0 | 10.0 | 0.00 | 0.00 | 0.00 | 71 | 1005.4 |
| 20260506184525 | 67 | 219 | 1.0 | 7.0 | 0.00 | 0.00 | 0.00 | 68 | 1005.5 |
| 20260506183023 | 68 | 217 | 3.0 | 13.0 | 0.00 | 0.00 | 0.00 | 65 | 1005.6 |
| 20260506181527 | 69 | 173 | 3.0 | 8.0 | 0.00 | 0.00 | 0.00 | 60 | 1005.6 |
| 20260506180023 | 70 | 180 | 3.0 | 6.0 | 0.00 | 0.00 | 0.00 | 58 | 1005.5 |
| 20260506174522 | 71 | 262 | 3.0 | 10.0 | 0.00 | 0.00 | 0.00 | 57 | 1005.6 |
| 20260506173021 | 72 | 181 | 4.0 | 17.0 | 0.00 | 0.00 | 0.00 | 56 | 1005.9 |